sensor_id;sensor_type;location;lat;lon;timestamp;temperature;humidity
33414;DHT22;60055;41.884;12.534;2023-02-03T00:00:31;8.30;99.90
33414;DHT22;60055;41.884;12.534;2023-02-03T00:02:57;8.20;99.90
33414;DHT22;60055;41.884;12.534;2023-02-03T00:05:23;8.30;99.90
33414;DHT22;60055;41.884;12.534;2023-02-03T00:07:48;8.30;99.90
33414;DHT22;60055;41.884;12.534;2023-02-03T00:10:15;8.30;99.90
33414;DHT22;60055;41.884;12.534;2023-02-03T00:12:49;8.30;99.90
33414;DHT22;60055;41.884;12.534;2023-02-03T00:15:15;8.30;99.90
33414;DHT22;60055;41.884;12.534;2023-02-03T00:17:42;8.40;99.90
33414;DHT22;60055;41.884;12.534;2023-02-03T00:20:08;8.40;99.90
33414;DHT22;60055;41.884;12.534;2023-02-03T00:22:35;8.50;99.90
33414;DHT22;60055;41.884;12.534;2023-02-03T00:25:00;8.50;99.90
33414;DHT22;60055;41.884;12.534;2023-02-03T00:27:26;8.60;99.90
33414;DHT22;60055;41.884;12.534;2023-02-03T00:29:52;8.60;99.90
33414;DHT22;60055;41.884;12.534;2023-02-03T00:32:19;8.60;99.90
33414;DHT22;60055;41.884;12.534;2023-02-03T00:34:44;8.60;99.90
33414;DHT22;60055;41.884;12.534;2023-02-03T00:37:12;8.60;99.90
33414;DHT22;60055;41.884;12.534;2023-02-03T00:39:38;8.50;99.90
33414;DHT22;60055;41.884;12.534;2023-02-03T00:42:05;8.50;99.90
33414;DHT22;60055;41.884;12.534;2023-02-03T00:44:30;8.40;99.90
33414;DHT22;60055;41.884;12.534;2023-02-03T00:46:56;8.50;99.90
33414;DHT22;60055;41.884;12.534;2023-02-03T00:49:23;8.50;99.90
33414;DHT22;60055;41.884;12.534;2023-02-03T00:51:49;8.40;99.90
33414;DHT22;60055;41.884;12.534;2023-02-03T00:54:15;8.40;99.90
33414;DHT22;60055;41.884;12.534;2023-02-03T00:56:41;8.40;99.90
33414;DHT22;60055;41.884;12.534;2023-02-03T00:59:07;8.30;99.90
33414;DHT22;60055;41.884;12.534;2023-02-03T01:01:34;8.30;99.90
33414;DHT22;60055;41.884;12.534;2023-02-03T01:04:00;8.30;99.90
33414;DHT22;60055;41.884;12.534;2023-02-03T01:06:26;8.30;99.90
33414;DHT22;60055;41.884;12.534;2023-02-03T01:08:52;8.30;99.90
33414;DHT22;60055;41.884;12.534;2023-02-03T01:11:26;8.30;99.90
33414;DHT22;60055;41.884;12.534;2023-02-03T01:13:53;8.40;99.90
33414;DHT22;60055;41.884;12.534;2023-02-03T01:16:20;8.30;99.90
33414;DHT22;60055;41.884;12.534;2023-02-03T01:18:47;8.40;99.90
33414;DHT22;60055;41.884;12.534;2023-02-03T01:21:18;8.40;99.90
33414;DHT22;60055;41.884;12.534;2023-02-03T01:23:45;8.50;99.90
33414;DHT22;60055;41.884;12.534;2023-02-03T01:26:17;8.30;99.90
33414;DHT22;60055;41.884;12.534;2023-02-03T01:28:43;8.20;99.90
33414;DHT22;60055;41.884;12.534;2023-02-03T01:31:14;8.10;99.90
33414;DHT22;60055;41.884;12.534;2023-02-03T01:33:40;8.20;99.90
33414;DHT22;60055;41.884;12.534;2023-02-03T01:36:09;8.30;99.90
33414;DHT22;60055;41.884;12.534;2023-02-03T01:38:36;8.20;99.90
33414;DHT22;60055;41.884;12.534;2023-02-03T01:41:02;8.20;99.90
33414;DHT22;60055;41.884;12.534;2023-02-03T01:43:38;8.40;99.90
33414;DHT22;60055;41.884;12.534;2023-02-03T01:48:45;8.40;99.90
33414;DHT22;60055;41.884;12.534;2023-02-03T01:51:11;8.40;99.90
33414;DHT22;60055;41.884;12.534;2023-02-03T01:53:36;8.30;99.90
33414;DHT22;60055;41.884;12.534;2023-02-03T01:56:04;8.30;99.90
33414;DHT22;60055;41.884;12.534;2023-02-03T01:58:34;8.30;99.90
33414;DHT22;60055;41.884;12.534;2023-02-03T02:01:01;8.20;99.90
33414;DHT22;60055;41.884;12.534;2023-02-03T02:03:43;8.10;99.90
33414;DHT22;60055;41.884;12.534;2023-02-03T02:06:12;8.10;99.90
33414;DHT22;60055;41.884;12.534;2023-02-03T02:08:40;8.10;99.90
33414;DHT22;60055;41.884;12.534;2023-02-03T02:11:07;8.10;99.90
33414;DHT22;60055;41.884;12.534;2023-02-03T02:13:34;8.10;99.90
33414;DHT22;60055;41.884;12.534;2023-02-03T02:16:16;8.00;99.90
33414;DHT22;60055;41.884;12.534;2023-02-03T02:26:47;8.00;99.90
33414;DHT22;60055;41.884;12.534;2023-02-03T02:43:07;7.80;99.90
33414;DHT22;60055;41.884;12.534;2023-02-03T02:48:34;7.60;99.90
33414;DHT22;60055;41.884;12.534;2023-02-03T02:51:03;7.60;99.90
33414;DHT22;60055;41.884;12.534;2023-02-03T02:53:38;7.60;99.90
33414;DHT22;60055;41.884;12.534;2023-02-03T02:56:06;7.60;99.90
33414;DHT22;60055;41.884;12.534;2023-02-03T02:58:35;7.70;99.90
33414;DHT22;60055;41.884;12.534;2023-02-03T03:01:02;7.60;99.90
33414;DHT22;60055;41.884;12.534;2023-02-03T03:03:28;7.60;99.90
33414;DHT22;60055;41.884;12.534;2023-02-03T03:06:01;7.80;99.90
33414;DHT22;60055;41.884;12.534;2023-02-03T03:11:28;7.80;99.90
33414;DHT22;60055;41.884;12.534;2023-02-03T03:13:56;7.70;99.90
33414;DHT22;60055;41.884;12.534;2023-02-03T03:16:29;7.50;99.90
33414;DHT22;60055;41.884;12.534;2023-02-03T03:19:08;7.50;99.90
33414;DHT22;60055;41.884;12.534;2023-02-03T03:21:42;7.70;99.90
33414;DHT22;60055;41.884;12.534;2023-02-03T03:24:11;7.80;99.90
33414;DHT22;60055;41.884;12.534;2023-02-03T03:26:51;7.90;99.90
33414;DHT22;60055;41.884;12.534;2023-02-03T03:29:50;7.90;99.90
33414;DHT22;60055;41.884;12.534;2023-02-03T03:32:18;7.80;99.90
33414;DHT22;60055;41.884;12.534;2023-02-03T03:34:44;7.80;99.90
33414;DHT22;60055;41.884;12.534;2023-02-03T03:39:57;7.50;99.90
33414;DHT22;60055;41.884;12.534;2023-02-03T03:45:15;7.40;99.90
33414;DHT22;60055;41.884;12.534;2023-02-03T03:47:52;7.50;99.90
33414;DHT22;60055;41.884;12.534;2023-02-03T03:50:25;7.60;99.90
33414;DHT22;60055;41.884;12.534;2023-02-03T03:52:52;7.50;99.90
33414;DHT22;60055;41.884;12.534;2023-02-03T03:55:19;7.30;99.90
33414;DHT22;60055;41.884;12.534;2023-02-03T04:00:23;7.20;99.90
33414;DHT22;60055;41.884;12.534;2023-02-03T04:02:52;7.20;99.90
33414;DHT22;60055;41.884;12.534;2023-02-03T04:05:19;7.20;99.90
33414;DHT22;60055;41.884;12.534;2023-02-03T04:07:46;7.20;99.90
33414;DHT22;60055;41.884;12.534;2023-02-03T04:10:32;7.10;99.90
33414;DHT22;60055;41.884;12.534;2023-02-03T04:12:59;7.10;99.90
33414;DHT22;60055;41.884;12.534;2023-02-03T04:15:25;7.10;99.90
33414;DHT22;60055;41.884;12.534;2023-02-03T04:17:51;7.10;99.90
33414;DHT22;60055;41.884;12.534;2023-02-03T04:20:16;7.10;99.90
33414;DHT22;60055;41.884;12.534;2023-02-03T04:22:42;7.00;99.90
33414;DHT22;60055;41.884;12.534;2023-02-03T04:25:08;7.10;99.90
33414;DHT22;60055;41.884;12.534;2023-02-03T04:27:34;7.30;99.90
33414;DHT22;60055;41.884;12.534;2023-02-03T04:30:00;7.10;99.90
33414;DHT22;60055;41.884;12.534;2023-02-03T04:32:26;6.90;99.90
33414;DHT22;60055;41.884;12.534;2023-02-03T04:34:52;6.80;99.90
33414;DHT22;60055;41.884;12.534;2023-02-03T04:37:18;7.00;99.90
33414;DHT22;60055;41.884;12.534;2023-02-03T04:39:45;6.80;99.90
33414;DHT22;60055;41.884;12.534;2023-02-03T04:42:11;7.00;99.90
33414;DHT22;60055;41.884;12.534;2023-02-03T04:44:36;7.00;99.90
33414;DHT22;60055;41.884;12.534;2023-02-03T04:47:02;7.00;99.90
33414;DHT22;60055;41.884;12.534;2023-02-03T04:49:27;7.00;99.90
33414;DHT22;60055;41.884;12.534;2023-02-03T04:51:53;6.90;99.90
33414;DHT22;60055;41.884;12.534;2023-02-03T04:54:18;7.00;99.90
33414;DHT22;60055;41.884;12.534;2023-02-03T04:56:45;6.80;99.90
33414;DHT22;60055;41.884;12.534;2023-02-03T04:59:11;6.80;99.90
33414;DHT22;60055;41.884;12.534;2023-02-03T05:01:37;6.80;99.90
33414;DHT22;60055;41.884;12.534;2023-02-03T05:04:02;6.90;99.90
33414;DHT22;60055;41.884;12.534;2023-02-03T05:06:28;7.00;99.90
33414;DHT22;60055;41.884;12.534;2023-02-03T05:08:56;6.90;99.90
33414;DHT22;60055;41.884;12.534;2023-02-03T05:11:22;6.90;99.90
33414;DHT22;60055;41.884;12.534;2023-02-03T05:13:47;6.90;99.90
33414;DHT22;60055;41.884;12.534;2023-02-03T05:16:20;6.90;99.90
33414;DHT22;60055;41.884;12.534;2023-02-03T05:18:45;6.80;99.90
33414;DHT22;60055;41.884;12.534;2023-02-03T05:21:11;6.90;99.90
33414;DHT22;60055;41.884;12.534;2023-02-03T05:23:37;6.80;99.90
33414;DHT22;60055;41.884;12.534;2023-02-03T05:26:03;6.90;99.90
33414;DHT22;60055;41.884;12.534;2023-02-03T05:28:28;6.80;99.90
33414;DHT22;60055;41.884;12.534;2023-02-03T05:30:57;6.70;99.90
33414;DHT22;60055;41.884;12.534;2023-02-03T05:33:23;6.60;99.90
33414;DHT22;60055;41.884;12.534;2023-02-03T05:35:49;6.50;99.90
33414;DHT22;60055;41.884;12.534;2023-02-03T05:38:14;6.40;99.90
33414;DHT22;60055;41.884;12.534;2023-02-03T05:40:40;6.40;99.90
33414;DHT22;60055;41.884;12.534;2023-02-03T05:43:24;6.40;99.90
33414;DHT22;60055;41.884;12.534;2023-02-03T05:45:50;6.40;99.90
33414;DHT22;60055;41.884;12.534;2023-02-03T05:48:15;6.40;99.90
33414;DHT22;60055;41.884;12.534;2023-02-03T05:50:41;6.60;99.90
33414;DHT22;60055;41.884;12.534;2023-02-03T05:53:07;6.50;99.90
33414;DHT22;60055;41.884;12.534;2023-02-03T05:55:33;6.40;99.90
33414;DHT22;60055;41.884;12.534;2023-02-03T05:57:59;6.50;99.90
33414;DHT22;60055;41.884;12.534;2023-02-03T06:00:26;6.40;99.90
33414;DHT22;60055;41.884;12.534;2023-02-03T06:02:57;6.50;99.90
33414;DHT22;60055;41.884;12.534;2023-02-03T06:05:24;6.40;99.90
33414;DHT22;60055;41.884;12.534;2023-02-03T06:07:50;6.40;99.90
33414;DHT22;60055;41.884;12.534;2023-02-03T06:10:17;6.30;99.90
33414;DHT22;60055;41.884;12.534;2023-02-03T06:12:43;6.30;99.90
33414;DHT22;60055;41.884;12.534;2023-02-03T06:15:09;6.30;99.90
33414;DHT22;60055;41.884;12.534;2023-02-03T06:17:36;6.30;99.90
33414;DHT22;60055;41.884;12.534;2023-02-03T06:20:05;6.30;99.90
33414;DHT22;60055;41.884;12.534;2023-02-03T06:22:32;6.40;99.90
33414;DHT22;60055;41.884;12.534;2023-02-03T06:24:59;6.60;99.90
33414;DHT22;60055;41.884;12.534;2023-02-03T06:27:25;6.40;99.90
33414;DHT22;60055;41.884;12.534;2023-02-03T06:29:51;6.30;99.90
33414;DHT22;60055;41.884;12.534;2023-02-03T06:32:17;6.50;99.90
33414;DHT22;60055;41.884;12.534;2023-02-03T06:34:43;6.60;99.90
33414;DHT22;60055;41.884;12.534;2023-02-03T06:37:09;6.50;99.90
33414;DHT22;60055;41.884;12.534;2023-02-03T06:39:35;6.40;99.90
33414;DHT22;60055;41.884;12.534;2023-02-03T06:42:01;6.40;99.90
33414;DHT22;60055;41.884;12.534;2023-02-03T06:44:28;6.30;99.90
33414;DHT22;60055;41.884;12.534;2023-02-03T06:46:53;6.30;99.90
33414;DHT22;60055;41.884;12.534;2023-02-03T06:49:21;6.40;99.90
33414;DHT22;60055;41.884;12.534;2023-02-03T06:51:47;6.30;99.90
33414;DHT22;60055;41.884;12.534;2023-02-03T06:54:13;6.30;99.90
33414;DHT22;60055;41.884;12.534;2023-02-03T06:56:39;6.30;99.90
33414;DHT22;60055;41.884;12.534;2023-02-03T06:59:05;6.40;99.90
33414;DHT22;60055;41.884;12.534;2023-02-03T07:01:31;6.30;99.90
33414;DHT22;60055;41.884;12.534;2023-02-03T07:03:57;6.30;99.90
33414;DHT22;60055;41.884;12.534;2023-02-03T07:06:27;6.40;99.90
33414;DHT22;60055;41.884;12.534;2023-02-03T07:08:55;6.40;99.90
33414;DHT22;60055;41.884;12.534;2023-02-03T07:11:21;6.60;99.90
33414;DHT22;60055;41.884;12.534;2023-02-03T07:13:46;6.50;99.90
33414;DHT22;60055;41.884;12.534;2023-02-03T07:16:15;6.50;99.90
33414;DHT22;60055;41.884;12.534;2023-02-03T07:18:40;6.60;99.90
33414;DHT22;60055;41.884;12.534;2023-02-03T07:21:06;6.50;99.90
33414;DHT22;60055;41.884;12.534;2023-02-03T07:23:32;6.60;99.90
33414;DHT22;60055;41.884;12.534;2023-02-03T07:26:02;6.80;99.90
33414;DHT22;60055;41.884;12.534;2023-02-03T07:28:30;6.90;99.90
33414;DHT22;60055;41.884;12.534;2023-02-03T07:30:55;6.90;99.90
33414;DHT22;60055;41.884;12.534;2023-02-03T07:33:21;7.00;99.90
33414;DHT22;60055;41.884;12.534;2023-02-03T07:35:52;7.00;99.90
33414;DHT22;60055;41.884;12.534;2023-02-03T07:38:18;7.20;99.90
33414;DHT22;60055;41.884;12.534;2023-02-03T07:40:43;7.20;99.90
33414;DHT22;60055;41.884;12.534;2023-02-03T07:43:10;7.30;99.90
33414;DHT22;60055;41.884;12.534;2023-02-03T07:45:36;7.40;99.90
33414;DHT22;60055;41.884;12.534;2023-02-03T07:48:01;7.50;99.90
33414;DHT22;60055;41.884;12.534;2023-02-03T07:50:27;7.70;99.90
33414;DHT22;60055;41.884;12.534;2023-02-03T07:52:53;8.00;99.90
33414;DHT22;60055;41.884;12.534;2023-02-03T07:55:21;8.30;99.90
33414;DHT22;60055;41.884;12.534;2023-02-03T07:57:47;8.30;99.90
33414;DHT22;60055;41.884;12.534;2023-02-03T08:00:15;8.50;99.90
33414;DHT22;60055;41.884;12.534;2023-02-03T08:02:43;8.50;99.90
33414;DHT22;60055;41.884;12.534;2023-02-03T08:05:10;8.70;99.90
33414;DHT22;60055;41.884;12.534;2023-02-03T08:07:36;8.90;99.90
33414;DHT22;60055;41.884;12.534;2023-02-03T08:10:03;8.50;99.90
33414;DHT22;60055;41.884;12.534;2023-02-03T08:12:28;8.90;99.90
33414;DHT22;60055;41.884;12.534;2023-02-03T08:14:54;9.10;99.90
33414;DHT22;60055;41.884;12.534;2023-02-03T08:17:20;9.20;99.90
33414;DHT22;60055;41.884;12.534;2023-02-03T08:19:46;9.70;99.90
33414;DHT22;60055;41.884;12.534;2023-02-03T08:22:13;9.40;99.90
33414;DHT22;60055;41.884;12.534;2023-02-03T08:24:42;9.50;99.90
33414;DHT22;60055;41.884;12.534;2023-02-03T08:27:16;9.80;99.90
33414;DHT22;60055;41.884;12.534;2023-02-03T08:29:44;10.00;99.90
33414;DHT22;60055;41.884;12.534;2023-02-03T08:32:16;10.20;99.90
33414;DHT22;60055;41.884;12.534;2023-02-03T08:34:42;10.20;99.90
33414;DHT22;60055;41.884;12.534;2023-02-03T08:37:10;10.20;99.90
33414;DHT22;60055;41.884;12.534;2023-02-03T08:39:36;9.80;99.90
33414;DHT22;60055;41.884;12.534;2023-02-03T08:42:02;10.10;99.90
33414;DHT22;60055;41.884;12.534;2023-02-03T08:44:31;10.40;99.90
33414;DHT22;60055;41.884;12.534;2023-02-03T08:46:57;10.40;99.90
33414;DHT22;60055;41.884;12.534;2023-02-03T08:49:26;9.90;99.90
33414;DHT22;60055;41.884;12.534;2023-02-03T08:51:52;10.10;99.90
33414;DHT22;60055;41.884;12.534;2023-02-03T08:54:19;10.20;99.90
33414;DHT22;60055;41.884;12.534;2023-02-03T08:56:46;10.40;99.90
33414;DHT22;60055;41.884;12.534;2023-02-03T08:59:13;10.60;99.90
33414;DHT22;60055;41.884;12.534;2023-02-03T09:01:39;10.30;99.90
33414;DHT22;60055;41.884;12.534;2023-02-03T09:04:06;10.60;99.90
33414;DHT22;60055;41.884;12.534;2023-02-03T09:06:33;10.40;99.90
33414;DHT22;60055;41.884;12.534;2023-02-03T09:08:59;10.00;99.90
33414;DHT22;60055;41.884;12.534;2023-02-03T09:11:25;10.20;99.90
33414;DHT22;60055;41.884;12.534;2023-02-03T09:13:50;10.10;99.90
33414;DHT22;60055;41.884;12.534;2023-02-03T09:16:18;10.20;99.90
33414;DHT22;60055;41.884;12.534;2023-02-03T09:18:45;10.40;99.90
33414;DHT22;60055;41.884;12.534;2023-02-03T09:21:12;10.40;99.90
33414;DHT22;60055;41.884;12.534;2023-02-03T09:23:38;10.30;99.90
33414;DHT22;60055;41.884;12.534;2023-02-03T09:26:09;10.60;99.90
33414;DHT22;60055;41.884;12.534;2023-02-03T09:28:36;10.40;99.90
33414;DHT22;60055;41.884;12.534;2023-02-03T09:31:04;10.50;99.90
33414;DHT22;60055;41.884;12.534;2023-02-03T09:33:30;10.70;99.90
33414;DHT22;60055;41.884;12.534;2023-02-03T09:36:00;11.10;99.90
33414;DHT22;60055;41.884;12.534;2023-02-03T09:38:27;11.10;99.90
33414;DHT22;60055;41.884;12.534;2023-02-03T09:40:56;11.10;99.90
33414;DHT22;60055;41.884;12.534;2023-02-03T09:44:10;11.00;99.90
33414;DHT22;60055;41.884;12.534;2023-02-03T09:46:43;11.20;99.90
33414;DHT22;60055;41.884;12.534;2023-02-03T09:49:40;11.20;99.90
33414;DHT22;60055;41.884;12.534;2023-02-03T09:54:46;11.60;99.90
33414;DHT22;60055;41.884;12.534;2023-02-03T09:57:27;11.80;99.90
33414;DHT22;60055;41.884;12.534;2023-02-03T09:59:56;11.90;99.90
33414;DHT22;60055;41.884;12.534;2023-02-03T10:10:39;12.10;99.90
33414;DHT22;60055;41.884;12.534;2023-02-03T10:18:31;12.10;99.90
33414;DHT22;60055;41.884;12.534;2023-02-03T10:21:18;12.10;99.90
33414;DHT22;60055;41.884;12.534;2023-02-03T10:23:47;12.10;99.90
33414;DHT22;60055;41.884;12.534;2023-02-03T10:26:22;12.10;99.90
33414;DHT22;60055;41.884;12.534;2023-02-03T10:28:55;12.20;99.90
33414;DHT22;60055;41.884;12.534;2023-02-03T10:31:24;12.00;99.90
33414;DHT22;60055;41.884;12.534;2023-02-03T10:36:56;12.20;99.90
33414;DHT22;60055;41.884;12.534;2023-02-03T10:39:46;12.10;99.90
33414;DHT22;60055;41.884;12.534;2023-02-03T10:42:12;12.00;99.90
33414;DHT22;60055;41.884;12.534;2023-02-03T10:44:52;12.00;99.90
33414;DHT22;60055;41.884;12.534;2023-02-03T10:49:51;12.00;99.90
33414;DHT22;60055;41.884;12.534;2023-02-03T10:52:26;12.00;99.90
33414;DHT22;60055;41.884;12.534;2023-02-03T10:54:52;12.00;99.90
33414;DHT22;60055;41.884;12.534;2023-02-03T10:57:17;12.20;99.90
33414;DHT22;60055;41.884;12.534;2023-02-03T10:59:46;12.30;99.90
33414;DHT22;60055;41.884;12.534;2023-02-03T11:02:24;12.30;99.90
33414;DHT22;60055;41.884;12.534;2023-02-03T11:05:16;12.40;99.90
33414;DHT22;60055;41.884;12.534;2023-02-03T11:07:43;12.60;99.90
33414;DHT22;60055;41.884;12.534;2023-02-03T11:10:34;12.60;99.90
33414;DHT22;60055;41.884;12.534;2023-02-03T11:15:54;12.50;99.90
33414;DHT22;60055;41.884;12.534;2023-02-03T11:18:26;12.60;99.90
33414;DHT22;60055;41.884;12.534;2023-02-03T11:20:57;12.50;99.90
33414;DHT22;60055;41.884;12.534;2023-02-03T11:23:24;12.60;99.90
33414;DHT22;60055;41.884;12.534;2023-02-03T11:25:53;12.60;99.90
33414;DHT22;60055;41.884;12.534;2023-02-03T11:28:21;12.60;99.90
33414;DHT22;60055;41.884;12.534;2023-02-03T11:30:55;12.60;99.90
33414;DHT22;60055;41.884;12.534;2023-02-03T11:33:26;12.60;99.90
33414;DHT22;60055;41.884;12.534;2023-02-03T11:35:55;12.70;99.90
33414;DHT22;60055;41.884;12.534;2023-02-03T11:38:42;12.70;99.90
33414;DHT22;60055;41.884;12.534;2023-02-03T11:41:17;12.70;99.90
33414;DHT22;60055;41.884;12.534;2023-02-03T11:43:42;12.60;99.90
33414;DHT22;60055;41.884;12.534;2023-02-03T11:46:08;12.60;99.90
33414;DHT22;60055;41.884;12.534;2023-02-03T11:48:35;12.60;99.90
33414;DHT22;60055;41.884;12.534;2023-02-03T11:56:36;12.90;99.90
33414;DHT22;60055;41.884;12.534;2023-02-03T11:59:39;12.90;99.90
33414;DHT22;60055;41.884;12.534;2023-02-03T12:05:14;13.10;99.90
33414;DHT22;60055;41.884;12.534;2023-02-03T12:08:03;13.20;99.90
33414;DHT22;60055;41.884;12.534;2023-02-03T12:16:00;13.20;99.90
33414;DHT22;60055;41.884;12.534;2023-02-03T12:23:51;13.50;99.90
33414;DHT22;60055;41.884;12.534;2023-02-03T12:26:24;13.60;99.90
33414;DHT22;60055;41.884;12.534;2023-02-03T12:29:00;13.70;99.90
33414;DHT22;60055;41.884;12.534;2023-02-03T12:31:29;13.70;99.90
33414;DHT22;60055;41.884;12.534;2023-02-03T12:34:11;13.80;99.90
33414;DHT22;60055;41.884;12.534;2023-02-03T12:36:44;13.80;99.90
33414;DHT22;60055;41.884;12.534;2023-02-03T12:39:38;13.80;99.90
33414;DHT22;60055;41.884;12.534;2023-02-03T12:42:22;13.80;99.90
33414;DHT22;60055;41.884;12.534;2023-02-03T12:45:10;13.80;99.90
33414;DHT22;60055;41.884;12.534;2023-02-03T12:47:48;13.90;99.90
33414;DHT22;60055;41.884;12.534;2023-02-03T12:50:20;14.00;99.90
33414;DHT22;60055;41.884;12.534;2023-02-03T12:53:19;14.10;99.90
33414;DHT22;60055;41.884;12.534;2023-02-03T12:55:52;14.20;99.90
33414;DHT22;60055;41.884;12.534;2023-02-03T12:59:14;14.10;99.90
33414;DHT22;60055;41.884;12.534;2023-02-03T13:01:26;14.30;99.90
33414;DHT22;60055;41.884;12.534;2023-02-03T13:07:23;14.50;99.90
33414;DHT22;60055;41.884;12.534;2023-02-03T13:10:23;14.20;99.90
33414;DHT22;60055;41.884;12.534;2023-02-03T13:12:54;14.30;99.90
33414;DHT22;60055;41.884;12.534;2023-02-03T13:15:27;14.20;99.90
33414;DHT22;60055;41.884;12.534;2023-02-03T13:18:01;14.40;99.90
33414;DHT22;60055;41.884;12.534;2023-02-03T13:20:30;14.50;99.90
33414;DHT22;60055;41.884;12.534;2023-02-03T13:23:00;14.60;99.90
33414;DHT22;60055;41.884;12.534;2023-02-03T13:42:37;14.30;99.90
33414;DHT22;60055;41.884;12.534;2023-02-03T13:47:33;14.20;99.90
33414;DHT22;60055;41.884;12.534;2023-02-03T13:50:02;14.40;99.90
33414;DHT22;60055;41.884;12.534;2023-02-03T13:52:34;14.40;99.90
33414;DHT22;60055;41.884;12.534;2023-02-03T13:55:01;14.20;99.90
33414;DHT22;60055;41.884;12.534;2023-02-03T13:57:34;14.20;99.90
33414;DHT22;60055;41.884;12.534;2023-02-03T14:00:02;14.20;99.90
33414;DHT22;60055;41.884;12.534;2023-02-03T14:02:39;14.20;99.90
33414;DHT22;60055;41.884;12.534;2023-02-03T14:05:36;14.30;99.90
33414;DHT22;60055;41.884;12.534;2023-02-03T14:07:55;14.30;99.90
33414;DHT22;60055;41.884;12.534;2023-02-03T14:10:21;14.10;99.90
33414;DHT22;60055;41.884;12.534;2023-02-03T14:18:29;14.50;99.90
33414;DHT22;60055;41.884;12.534;2023-02-03T14:21:09;14.60;99.90
33414;DHT22;60055;41.884;12.534;2023-02-03T14:23:40;14.60;99.90
33414;DHT22;60055;41.884;12.534;2023-02-03T14:26:15;14.50;99.90
33414;DHT22;60055;41.884;12.534;2023-02-03T14:28:44;14.30;99.90
33414;DHT22;60055;41.884;12.534;2023-02-03T14:31:17;14.40;99.90
33414;DHT22;60055;41.884;12.534;2023-02-03T14:36:42;14.50;99.90
33414;DHT22;60055;41.884;12.534;2023-02-03T14:42:03;14.30;99.90
33414;DHT22;60055;41.884;12.534;2023-02-03T14:44:44;14.00;99.90
33414;DHT22;60055;41.884;12.534;2023-02-03T14:58:13;13.70;99.90
33414;DHT22;60055;41.884;12.534;2023-02-03T15:00:40;13.70;99.90
33414;DHT22;60055;41.884;12.534;2023-02-03T15:08:45;13.20;99.90
33414;DHT22;60055;41.884;12.534;2023-02-03T15:11:32;13.30;99.90
33414;DHT22;60055;41.884;12.534;2023-02-03T15:16:42;13.00;99.90
33414;DHT22;60055;41.884;12.534;2023-02-03T15:19:19;12.90;99.90
33414;DHT22;60055;41.884;12.534;2023-02-03T15:21:46;13.10;99.90
33414;DHT22;60055;41.884;12.534;2023-02-03T15:24:14;13.00;99.90
33414;DHT22;60055;41.884;12.534;2023-02-03T15:26:52;13.00;99.90
33414;DHT22;60055;41.884;12.534;2023-02-03T15:29:30;12.90;99.90
33414;DHT22;60055;41.884;12.534;2023-02-03T15:32:12;12.70;99.90
33414;DHT22;60055;41.884;12.534;2023-02-03T15:34:43;12.80;99.90
33414;DHT22;60055;41.884;12.534;2023-02-03T15:37:18;12.90;99.90
33414;DHT22;60055;41.884;12.534;2023-02-03T15:45:04;13.10;99.90
33414;DHT22;60055;41.884;12.534;2023-02-03T15:47:40;13.00;99.90
33414;DHT22;60055;41.884;12.534;2023-02-03T15:52:53;12.90;99.90
33414;DHT22;60055;41.884;12.534;2023-02-03T15:55:37;12.80;99.90
33414;DHT22;60055;41.884;12.534;2023-02-03T15:58:25;13.00;99.90
33414;DHT22;60055;41.884;12.534;2023-02-03T16:01:03;12.80;99.90
33414;DHT22;60055;41.884;12.534;2023-02-03T16:03:41;12.60;99.90
33414;DHT22;60055;41.884;12.534;2023-02-03T16:08:46;12.30;99.90
33414;DHT22;60055;41.884;12.534;2023-02-03T16:11:29;12.20;99.90
33414;DHT22;60055;41.884;12.534;2023-02-03T16:13:58;12.10;99.90
33414;DHT22;60055;41.884;12.534;2023-02-03T16:16:29;12.10;99.90
33414;DHT22;60055;41.884;12.534;2023-02-03T16:18:58;12.10;99.90
33414;DHT22;60055;41.884;12.534;2023-02-03T16:21:30;12.10;99.90
33414;DHT22;60055;41.884;12.534;2023-02-03T16:23:56;12.20;99.90
33414;DHT22;60055;41.884;12.534;2023-02-03T16:26:25;12.10;99.90
33414;DHT22;60055;41.884;12.534;2023-02-03T16:31:47;12.10;99.90
33414;DHT22;60055;41.884;12.534;2023-02-03T16:34:32;12.20;99.90
33414;DHT22;60055;41.884;12.534;2023-02-03T16:37:22;12.00;99.90
33414;DHT22;60055;41.884;12.534;2023-02-03T16:40:07;12.10;99.90
33414;DHT22;60055;41.884;12.534;2023-02-03T16:42:52;12.20;99.90
33414;DHT22;60055;41.884;12.534;2023-02-03T16:45:36;12.20;99.90
33414;DHT22;60055;41.884;12.534;2023-02-03T16:48:20;12.40;99.90
33414;DHT22;60055;41.884;12.534;2023-02-03T16:51:06;12.40;99.90
33414;DHT22;60055;41.884;12.534;2023-02-03T16:53:35;12.10;99.90
33414;DHT22;60055;41.884;12.534;2023-02-03T16:56:02;12.30;99.90
33414;DHT22;60055;41.884;12.534;2023-02-03T16:58:29;12.40;99.90
33414;DHT22;60055;41.884;12.534;2023-02-03T17:00:57;12.50;99.90
33414;DHT22;60055;41.884;12.534;2023-02-03T17:03:25;12.40;99.90
33414;DHT22;60055;41.884;12.534;2023-02-03T17:05:52;12.40;99.90
33414;DHT22;60055;41.884;12.534;2023-02-03T17:08:21;12.40;99.90
33414;DHT22;60055;41.884;12.534;2023-02-03T17:10:47;12.30;99.90
33414;DHT22;60055;41.884;12.534;2023-02-03T17:13:16;12.30;99.90
33414;DHT22;60055;41.884;12.534;2023-02-03T17:15:44;12.20;99.90
33414;DHT22;60055;41.884;12.534;2023-02-03T17:18:11;12.10;99.90
33414;DHT22;60055;41.884;12.534;2023-02-03T17:20:39;12.10;99.90
33414;DHT22;60055;41.884;12.534;2023-02-03T17:23:06;12.20;99.90
33414;DHT22;60055;41.884;12.534;2023-02-03T17:25:32;12.20;99.90
33414;DHT22;60055;41.884;12.534;2023-02-03T17:28:04;12.00;99.90
33414;DHT22;60055;41.884;12.534;2023-02-03T17:30:30;11.90;99.90
33414;DHT22;60055;41.884;12.534;2023-02-03T17:33:00;11.80;99.90
33414;DHT22;60055;41.884;12.534;2023-02-03T17:35:27;11.70;99.90
33414;DHT22;60055;41.884;12.534;2023-02-03T17:37:52;11.80;99.90
33414;DHT22;60055;41.884;12.534;2023-02-03T17:40:19;11.70;99.90
33414;DHT22;60055;41.884;12.534;2023-02-03T17:42:45;11.70;99.90
33414;DHT22;60055;41.884;12.534;2023-02-03T17:45:11;11.80;99.90
33414;DHT22;60055;41.884;12.534;2023-02-03T17:47:36;12.00;99.90
33414;DHT22;60055;41.884;12.534;2023-02-03T17:50:02;12.10;99.90
33414;DHT22;60055;41.884;12.534;2023-02-03T17:52:28;12.30;99.90
33414;DHT22;60055;41.884;12.534;2023-02-03T17:54:53;12.20;99.90
33414;DHT22;60055;41.884;12.534;2023-02-03T17:57:19;12.20;99.90
33414;DHT22;60055;41.884;12.534;2023-02-03T17:59:46;12.20;99.90
33414;DHT22;60055;41.884;12.534;2023-02-03T18:02:11;12.30;99.90
33414;DHT22;60055;41.884;12.534;2023-02-03T18:04:37;12.10;99.90
33414;DHT22;60055;41.884;12.534;2023-02-03T18:07:02;12.00;99.90
33414;DHT22;60055;41.884;12.534;2023-02-03T18:09:28;11.90;99.90